createdAt,value
2022-08-23T03:44:15.947Z,100039.59
2022-08-23T03:47:19.918Z,100039.59
2022-08-23T03:50:27.867Z,100038.75
2022-08-23T03:53:30.907Z,100034.09
2022-08-23T03:56:37.576Z,100040.53
2022-08-23T03:59:41.464Z,100041.97
2022-08-23T04:02:44.259Z,100050.28
2022-08-23T04:05:47.413Z,100057.03
2022-08-23T04:08:50.269Z,100058.97
2022-08-23T04:11:53.279Z,100065.62
2022-08-23T04:14:56.050Z,100074.78
2022-08-23T04:18:00.163Z,100076.22
2022-08-23T04:21:07.486Z,100074.13
2022-08-23T04:24:11.384Z,100073.44
2022-08-23T04:27:15.759Z,100072.25
2022-08-23T04:30:20.464Z,100059.62
2022-08-23T04:33:23.221Z,100060.22
2022-08-23T04:36:26.600Z,100060.78
2022-08-23T04:39:54.089Z,100067.69
2022-08-23T04:42:57.823Z,100069.81
2022-08-23T04:46:01.190Z,100076.00
2022-08-23T04:49:06.133Z,100085.16
2022-08-23T04:52:09.136Z,100085.91
2022-08-23T04:55:13.247Z,100092.78
2022-08-23T04:58:16.703Z,100081.97
2022-08-23T05:01:19.726Z,100089.56
2022-08-23T05:04:23.068Z,100092.09
2022-08-23T05:07:30.994Z,100098.53
2022-08-23T05:10:44.871Z,100101.22
2022-08-23T05:13:47.749Z,100103.03
2022-08-23T05:16:50.496Z,100110.09
2022-08-23T05:19:53.443Z,100095.19
2022-08-23T05:22:56.120Z,100101.28
2022-08-23T05:25:59.991Z,100108.75
2022-08-23T05:29:02.709Z,100102.41
2022-08-23T05:32:07.312Z,100107.06
2022-08-23T05:35:29.828Z,100110.88
2022-08-23T05:38:53.478Z,100113.41
2022-08-23T05:42:18.303Z,100113.25
2022-08-23T05:45:41.676Z,100125.19
2022-08-23T05:49:06.047Z,100130.56
2022-08-23T05:52:30.725Z,100134.63
2022-08-23T05:55:53.106Z,100145.03
2022-08-23T05:59:17.170Z,100146.97
2022-08-23T06:02:39.555Z,100142.25
2022-08-23T06:06:03.270Z,100142.78
2022-08-23T06:09:26.353Z,100142.53
2022-08-23T06:12:49.070Z,100156.81
2022-08-23T06:16:14.851Z,100162.34
2022-08-23T06:19:18.616Z,100168.41
2022-08-23T06:22:23.452Z,100167.53
2022-08-23T06:25:26.407Z,100171.78
2022-08-23T06:28:29.770Z,100177.88
2022-08-23T06:31:45.350Z,100183.88
2022-08-23T06:34:47.960Z,100183.22
2022-08-23T06:37:52.397Z,100187.78
2022-08-23T06:41:00.072Z,100188.41
2022-08-23T06:44:03.964Z,100190.09
2022-08-23T06:47:07.786Z,100188.12
2022-08-23T06:50:11.501Z,100184.88
2022-08-23T06:53:17.964Z,100191.88
2022-08-23T06:56:22.224Z,100189.87
2022-08-23T06:59:25.452Z,100191.41
2022-08-23T07:02:28.501Z,100195.50
2022-08-23T07:05:35.344Z,100198.31
2022-08-23T07:08:38.546Z,100199.50
2022-08-23T07:11:42.383Z,100194.03
2022-08-23T07:14:45.399Z,100204.78
2022-08-23T07:17:48.513Z,100204.44
2022-08-23T07:20:59.807Z,100212.31
2022-08-23T07:24:03.060Z,100211.38
2022-08-23T07:27:07.322Z,100212.97
2022-08-23T07:30:10.754Z,100213.81
2022-08-23T07:33:13.802Z,100211.91
2022-08-23T07:36:18.963Z,100212.59
2022-08-23T07:39:23.772Z,100210.59
2022-08-23T07:42:27.467Z,100210.59
2022-08-23T07:45:30.623Z,100216.69
2022-08-23T07:48:53.386Z,100219.16
2022-08-23T07:51:58.830Z,100217.94
2022-08-23T07:55:02.031Z,100228.75
2022-08-23T07:58:05.221Z,100228.06
2022-08-23T08:01:16.768Z,100226.84
2022-08-23T08:04:20.756Z,100215.47
2022-08-23T08:07:24.010Z,100221.72
2022-08-23T08:10:27.459Z,100223.81
2022-08-23T08:13:31.345Z,100215.53
2022-08-23T08:16:40.283Z,100211.78
2022-08-23T08:19:45.864Z,100223.59
2022-08-23T08:22:58.706Z,100219.41
2022-08-23T08:26:05.793Z,100232.28
2022-08-23T08:29:12.003Z,100226.84
2022-08-23T08:32:16.609Z,100229.91
2022-08-23T08:35:19.655Z,100235.16
2022-08-23T08:38:23.609Z,100237.88
2022-08-23T08:41:54.732Z,100237.75
2022-08-23T08:45:16.393Z,100241.63
2022-08-23T08:48:22.267Z,100249.44
2022-08-23T08:51:35.791Z,100250.91
2022-08-23T08:54:41.476Z,100249.38
2022-08-23T08:57:47.294Z,100248.16
2022-08-23T09:00:55.587Z,100255.53
2022-08-23T09:04:02.100Z,100250.91
2022-08-23T09:07:26.901Z,100243.53
2022-08-23T09:10:50.106Z,100249.72
2022-08-23T09:14:12.842Z,100256.19
2022-08-23T09:17:20.951Z,100249.41
2022-08-23T09:20:32.890Z,100253.97
2022-08-23T09:23:43.188Z,100245.38
2022-08-23T09:26:46.266Z,100244.16
2022-08-23T09:29:58.291Z,100245.56
2022-08-23T09:33:15.751Z,100239.47
2022-08-23T09:36:22.484Z,100255.47
2022-08-23T09:39:31.334Z,100251.25
2022-08-23T09:42:39.627Z,100253.22
2022-08-23T09:45:50.209Z,100257.44
2022-08-23T09:48:58.887Z,100260.41
2022-08-23T09:52:13.768Z,100252.56
2022-08-23T09:55:54.759Z,100255.94
2022-08-23T09:58:57.892Z,100252.91
2022-08-23T10:02:02.438Z,100255.38
2022-08-23T10:05:29.329Z,100246.84
2022-08-23T10:08:38.500Z,100248.00
2022-08-23T10:11:46.299Z,100245.88
2022-08-23T10:14:49.475Z,100252.03
2022-08-23T10:18:04.878Z,100255.72
2022-08-23T10:21:24.276Z,100253.63
2022-08-23T10:24:55.876Z,100256.12
2022-08-23T10:28:39.580Z,100258.59
2022-08-23T10:31:46.519Z,100258.47
2022-08-23T10:34:57.398Z,100246.78
2022-08-23T10:38:17.594Z,100246.03
2022-08-23T10:41:21.919Z,100256.88
2022-08-23T10:44:47.864Z,100247.59
2022-08-23T10:48:13.205Z,100246.19
2022-08-23T10:51:31.279Z,100257.81
2022-08-23T10:54:46.883Z,100243.87
2022-08-23T10:57:53.380Z,100245.38
2022-08-23T11:00:57.770Z,100247.63
2022-08-23T11:04:16.775Z,100244.16
2022-08-23T11:07:21.683Z,100243.09
2022-08-23T11:10:39.117Z,100240.53
2022-08-23T11:13:52.824Z,100237.75
2022-08-23T11:17:00.033Z,100239.00
2022-08-23T11:20:09.917Z,100238.91
2022-08-23T11:23:16.265Z,100242.28
2022-08-23T11:26:36.791Z,100236.59
2022-08-23T11:29:41.393Z,100233.41
2022-08-23T11:32:49.153Z,100233.19
2022-08-23T11:36:11.355Z,100229.75
2022-08-23T11:39:19.663Z,100226.25
2022-08-23T11:42:37.812Z,100222.72
2022-08-23T11:45:49.545Z,100228.16
2022-08-23T11:49:13.201Z,100224.50
2022-08-23T11:52:15.782Z,100219.28
2022-08-23T11:56:10.199Z,100217.47
2022-08-23T11:59:32.138Z,100223.75
2022-08-23T12:02:37.880Z,100224.47
2022-08-23T12:06:09.183Z,100224.50
2022-08-23T12:09:13.451Z,100227.09
2022-08-23T12:12:38.778Z,100217.31
2022-08-23T12:16:11.781Z,100226.28
2022-08-23T12:19:39.936Z,100219.81
2022-08-23T12:23:15.631Z,100226.06
2022-08-23T12:26:31.284Z,100226.47
2022-08-23T12:29:46.278Z,100218.50
2022-08-23T12:33:17.760Z,100227.69
2022-08-23T12:36:45.895Z,100221.84
2022-08-23T12:39:52.725Z,100220.34
2022-08-23T12:43:08.132Z,100229.12
2022-08-23T12:46:11.819Z,100227.25
2022-08-23T12:49:26.797Z,100223.13
2022-08-23T12:52:32.660Z,100226.22
2022-08-23T12:55:40.433Z,100235.00
2022-08-23T12:58:48.347Z,100233.56
2022-08-23T13:01:54.343Z,100229.97
2022-08-23T13:05:03.808Z,100232.50
2022-08-23T13:08:11.719Z,100231.38
2022-08-23T13:11:20.470Z,100219.25
2022-08-23T13:14:26.037Z,100218.66
2022-08-23T13:17:38.739Z,100208.53
2022-08-23T13:20:41.297Z,100206.63
2022-08-23T13:23:45.089Z,100209.56
2022-08-23T13:26:48.860Z,100199.22
2022-08-23T13:30:01.474Z,100202.38
2022-08-23T13:33:04.009Z,100198.28
2022-08-23T13:36:21.338Z,100193.37
2022-08-23T13:39:24.292Z,100196.56
2022-08-23T13:42:34.085Z,100192.47
2022-08-23T13:45:45.861Z,100185.69
2022-08-23T13:48:54.511Z,100193.19
2022-08-23T13:52:17.206Z,100189.00
2022-08-23T13:55:23.968Z,100188.25
2022-08-23T13:58:33.820Z,100184.62
2022-08-23T14:01:36.877Z,100193.72
2022-08-23T14:04:40.816Z,100190.34
2022-08-23T14:07:46.137Z,100189.31
2022-08-23T14:10:50.186Z,100192.22
2022-08-23T14:13:52.907Z,100190.22
2022-08-23T14:16:59.651Z,100194.69
2022-08-23T14:23:29.547Z,100203.06
2022-08-23T14:26:32.435Z,100202.50
2022-08-23T14:29:35.529Z,100202.13
2022-08-23T14:32:40.726Z,100202.09
2022-08-23T14:35:44.099Z,100195.44
2022-08-23T14:38:47.174Z,100196.37
2022-08-23T14:41:53.091Z,100196.97
2022-08-23T14:44:55.710Z,100189.63
2022-08-23T14:47:58.582Z,100187.31
2022-08-23T14:51:02.048Z,100177.06
2022-08-23T14:54:07.895Z,100171.91
2022-08-23T14:57:10.802Z,100173.75
2022-08-23T15:00:14.348Z,100176.19
2022-08-23T15:03:22.795Z,100173.69
2022-08-23T15:06:25.719Z,100176.69
2022-08-23T15:09:28.403Z,100183.34
2022-08-23T15:15:54.928Z,100186.13
